sensor_id;sensor_type;location;lat;lon;timestamp;temperature;humidity
14099;DHT22;7126;48.458;7.930;2023-06-22T00:02:24;23.70;99.90
14099;DHT22;7126;48.458;7.930;2023-06-22T00:04:50;23.70;99.90
14099;DHT22;7126;48.458;7.930;2023-06-22T00:07:15;23.80;99.90
14099;DHT22;7126;48.458;7.930;2023-06-22T00:09:41;23.80;99.90
14099;DHT22;7126;48.458;7.930;2023-06-22T00:12:07;23.80;99.90
14099;DHT22;7126;48.458;7.930;2023-06-22T00:14:32;23.70;99.90
14099;DHT22;7126;48.458;7.930;2023-06-22T00:16:58;23.70;99.90
14099;DHT22;7126;48.458;7.930;2023-06-22T00:19:24;23.70;99.90
14099;DHT22;7126;48.458;7.930;2023-06-22T00:21:50;23.70;99.90
14099;DHT22;7126;48.458;7.930;2023-06-22T00:24:20;23.60;99.90
14099;DHT22;7126;48.458;7.930;2023-06-22T00:26:45;23.60;99.90
14099;DHT22;7126;48.458;7.930;2023-06-22T00:29:11;23.50;99.90
14099;DHT22;7126;48.458;7.930;2023-06-22T00:31:37;23.50;99.90
14099;DHT22;7126;48.458;7.930;2023-06-22T00:34:03;23.60;99.90
14099;DHT22;7126;48.458;7.930;2023-06-22T00:36:28;23.60;99.90
14099;DHT22;7126;48.458;7.930;2023-06-22T00:38:54;23.50;99.90
14099;DHT22;7126;48.458;7.930;2023-06-22T00:41:19;23.50;99.90
14099;DHT22;7126;48.458;7.930;2023-06-22T00:43:45;23.50;99.90
14099;DHT22;7126;48.458;7.930;2023-06-22T00:46:11;23.40;99.90
14099;DHT22;7126;48.458;7.930;2023-06-22T00:48:37;23.40;99.90
14099;DHT22;7126;48.458;7.930;2023-06-22T00:51:03;23.40;99.90
14099;DHT22;7126;48.458;7.930;2023-06-22T00:53:28;23.50;99.90
14099;DHT22;7126;48.458;7.930;2023-06-22T00:55:54;23.50;99.90
14099;DHT22;7126;48.458;7.930;2023-06-22T00:58:22;23.40;99.90
14099;DHT22;7126;48.458;7.930;2023-06-22T01:00:48;23.40;99.90
14099;DHT22;7126;48.458;7.930;2023-06-22T01:03:13;23.30;99.90
14099;DHT22;7126;48.458;7.930;2023-06-22T01:05:40;23.30;99.90
14099;DHT22;7126;48.458;7.930;2023-06-22T01:08:29;23.20;99.90
14099;DHT22;7126;48.458;7.930;2023-06-22T01:11:09;23.20;99.90
14099;DHT22;7126;48.458;7.930;2023-06-22T01:13:45;23.30;99.90
14099;DHT22;7126;48.458;7.930;2023-06-22T01:16:26;23.30;99.90
14099;DHT22;7126;48.458;7.930;2023-06-22T01:18:55;23.30;99.90
14099;DHT22;7126;48.458;7.930;2023-06-22T01:21:24;23.30;99.90
14099;DHT22;7126;48.458;7.930;2023-06-22T01:29:08;23.20;99.90
14099;DHT22;7126;48.458;7.930;2023-06-22T01:31:37;23.10;99.90
14099;DHT22;7126;48.458;7.930;2023-06-22T01:34:06;23.10;99.90
14099;DHT22;7126;48.458;7.930;2023-06-22T01:36:33;23.00;99.90
14099;DHT22;7126;48.458;7.930;2023-06-22T01:39:00;22.90;99.90
14099;DHT22;7126;48.458;7.930;2023-06-22T01:41:29;22.80;99.90
14099;DHT22;7126;48.458;7.930;2023-06-22T01:43:55;22.60;99.90
14099;DHT22;7126;48.458;7.930;2023-06-22T01:46:21;22.60;99.90
14099;DHT22;7126;48.458;7.930;2023-06-22T01:48:48;22.50;99.90
14099;DHT22;7126;48.458;7.930;2023-06-22T01:51:14;22.40;99.90
14099;DHT22;7126;48.458;7.930;2023-06-22T01:53:40;22.30;99.90
14099;DHT22;7126;48.458;7.930;2023-06-22T01:56:06;22.40;99.90
14099;DHT22;7126;48.458;7.930;2023-06-22T01:58:32;22.40;99.90
14099;DHT22;7126;48.458;7.930;2023-06-22T02:01:11;22.30;99.90
14099;DHT22;7126;48.458;7.930;2023-06-22T02:03:41;22.40;99.90
14099;DHT22;7126;48.458;7.930;2023-06-22T02:06:16;22.40;99.90
14099;DHT22;7126;48.458;7.930;2023-06-22T02:08:57;22.30;99.90
14099;DHT22;7126;48.458;7.930;2023-06-22T02:11:26;22.20;99.90
14099;DHT22;7126;48.458;7.930;2023-06-22T02:13:53;22.30;99.90
14099;DHT22;7126;48.458;7.930;2023-06-22T02:16:20;22.40;99.90
14099;DHT22;7126;48.458;7.930;2023-06-22T02:18:50;22.40;99.90
14099;DHT22;7126;48.458;7.930;2023-06-22T02:21:19;22.40;99.90
14099;DHT22;7126;48.458;7.930;2023-06-22T02:23:45;22.30;99.90
14099;DHT22;7126;48.458;7.930;2023-06-22T02:26:12;22.40;99.90
14099;DHT22;7126;48.458;7.930;2023-06-22T02:28:40;22.40;99.90
14099;DHT22;7126;48.458;7.930;2023-06-22T02:31:06;22.30;99.90
14099;DHT22;7126;48.458;7.930;2023-06-22T02:33:31;22.20;99.90
14099;DHT22;7126;48.458;7.930;2023-06-22T02:35:57;22.20;99.90
14099;DHT22;7126;48.458;7.930;2023-06-22T02:38:23;22.20;99.90
14099;DHT22;7126;48.458;7.930;2023-06-22T02:40:50;22.20;99.90
14099;DHT22;7126;48.458;7.930;2023-06-22T02:43:15;22.10;99.90
14099;DHT22;7126;48.458;7.930;2023-06-22T02:45:41;22.10;99.90
14099;DHT22;7126;48.458;7.930;2023-06-22T02:48:06;22.10;99.90
14099;DHT22;7126;48.458;7.930;2023-06-22T02:50:32;22.00;99.90
14099;DHT22;7126;48.458;7.930;2023-06-22T02:52:57;22.00;99.90
14099;DHT22;7126;48.458;7.930;2023-06-22T02:55:23;22.10;99.90
14099;DHT22;7126;48.458;7.930;2023-06-22T02:57:49;22.10;99.90
14099;DHT22;7126;48.458;7.930;2023-06-22T03:00:19;22.20;99.90
14099;DHT22;7126;48.458;7.930;2023-06-22T03:02:45;22.00;99.90
14099;DHT22;7126;48.458;7.930;2023-06-22T03:05:12;21.90;99.90
14099;DHT22;7126;48.458;7.930;2023-06-22T03:07:44;21.90;99.90
14099;DHT22;7126;48.458;7.930;2023-06-22T03:10:11;21.90;99.90
14099;DHT22;7126;48.458;7.930;2023-06-22T03:12:38;22.00;99.90
14099;DHT22;7126;48.458;7.930;2023-06-22T03:15:05;22.10;99.90
14099;DHT22;7126;48.458;7.930;2023-06-22T03:17:31;22.00;99.90
14099;DHT22;7126;48.458;7.930;2023-06-22T03:19:57;21.90;99.90
14099;DHT22;7126;48.458;7.930;2023-06-22T03:22:22;22.00;99.90
14099;DHT22;7126;48.458;7.930;2023-06-22T03:24:48;22.10;99.90
14099;DHT22;7126;48.458;7.930;2023-06-22T03:27:14;22.10;99.90
14099;DHT22;7126;48.458;7.930;2023-06-22T03:29:39;22.10;99.90
14099;DHT22;7126;48.458;7.930;2023-06-22T03:32:05;22.10;99.90
14099;DHT22;7126;48.458;7.930;2023-06-22T03:34:31;22.10;99.90
14099;DHT22;7126;48.458;7.930;2023-06-22T03:36:59;22.10;99.90
14099;DHT22;7126;48.458;7.930;2023-06-22T03:39:24;22.10;99.90
14099;DHT22;7126;48.458;7.930;2023-06-22T03:41:50;22.00;99.90
14099;DHT22;7126;48.458;7.930;2023-06-22T03:44:15;22.00;99.90
14099;DHT22;7126;48.458;7.930;2023-06-22T03:46:41;21.90;99.90
14099;DHT22;7126;48.458;7.930;2023-06-22T03:49:06;21.90;99.90
14099;DHT22;7126;48.458;7.930;2023-06-22T03:51:32;21.90;99.90
14099;DHT22;7126;48.458;7.930;2023-06-22T03:53:58;21.90;99.90
14099;DHT22;7126;48.458;7.930;2023-06-22T03:56:23;21.90;99.90
14099;DHT22;7126;48.458;7.930;2023-06-22T03:58:49;21.90;99.90
14099;DHT22;7126;48.458;7.930;2023-06-22T04:01:15;21.90;99.90
14099;DHT22;7126;48.458;7.930;2023-06-22T04:03:42;21.90;99.90
14099;DHT22;7126;48.458;7.930;2023-06-22T04:06:08;21.90;99.90
14099;DHT22;7126;48.458;7.930;2023-06-22T04:08:33;21.90;99.90
14099;DHT22;7126;48.458;7.930;2023-06-22T04:10:59;21.90;99.90
14099;DHT22;7126;48.458;7.930;2023-06-22T04:13:25;21.90;99.90
14099;DHT22;7126;48.458;7.930;2023-06-22T04:15:50;21.90;99.90
14099;DHT22;7126;48.458;7.930;2023-06-22T04:18:16;21.90;99.90
14099;DHT22;7126;48.458;7.930;2023-06-22T04:20:41;21.90;99.90
14099;DHT22;7126;48.458;7.930;2023-06-22T04:23:07;22.00;99.90
14099;DHT22;7126;48.458;7.930;2023-06-22T04:25:32;22.00;99.90
14099;DHT22;7126;48.458;7.930;2023-06-22T04:27:58;22.10;99.90
14099;DHT22;7126;48.458;7.930;2023-06-22T04:30:23;22.10;99.90
14099;DHT22;7126;48.458;7.930;2023-06-22T04:32:49;22.10;99.90
14099;DHT22;7126;48.458;7.930;2023-06-22T04:35:21;22.10;99.90
14099;DHT22;7126;48.458;7.930;2023-06-22T04:37:48;22.10;99.90
14099;DHT22;7126;48.458;7.930;2023-06-22T04:40:15;22.20;99.90
14099;DHT22;7126;48.458;7.930;2023-06-22T04:42:40;22.20;99.90
14099;DHT22;7126;48.458;7.930;2023-06-22T04:45:17;22.20;99.90
14099;DHT22;7126;48.458;7.930;2023-06-22T04:47:43;22.10;99.90
14099;DHT22;7126;48.458;7.930;2023-06-22T04:50:14;22.10;99.90
14099;DHT22;7126;48.458;7.930;2023-06-22T04:52:40;22.00;99.90
14099;DHT22;7126;48.458;7.930;2023-06-22T04:55:06;22.00;99.90
14099;DHT22;7126;48.458;7.930;2023-06-22T04:57:32;22.00;99.90
14099;DHT22;7126;48.458;7.930;2023-06-22T05:00:01;22.10;99.90
14099;DHT22;7126;48.458;7.930;2023-06-22T05:02:41;22.10;99.90
14099;DHT22;7126;48.458;7.930;2023-06-22T05:05:07;22.20;99.90
14099;DHT22;7126;48.458;7.930;2023-06-22T05:07:36;22.30;99.90
14099;DHT22;7126;48.458;7.930;2023-06-22T05:10:05;22.30;99.90
14099;DHT22;7126;48.458;7.930;2023-06-22T05:12:31;22.40;99.90
14099;DHT22;7126;48.458;7.930;2023-06-22T05:14:57;22.40;99.90
14099;DHT22;7126;48.458;7.930;2023-06-22T05:17:23;22.40;99.90
14099;DHT22;7126;48.458;7.930;2023-06-22T05:19:48;22.40;99.90
14099;DHT22;7126;48.458;7.930;2023-06-22T05:22:17;22.40;99.90
14099;DHT22;7126;48.458;7.930;2023-06-22T05:24:43;22.30;99.90
14099;DHT22;7126;48.458;7.930;2023-06-22T05:27:09;22.20;99.90
14099;DHT22;7126;48.458;7.930;2023-06-22T05:29:37;22.20;99.90
14099;DHT22;7126;48.458;7.930;2023-06-22T05:32:03;22.30;99.90
14099;DHT22;7126;48.458;7.930;2023-06-22T05:34:28;22.30;99.90
14099;DHT22;7126;48.458;7.930;2023-06-22T05:36:54;22.30;99.90
14099;DHT22;7126;48.458;7.930;2023-06-22T05:39:19;22.30;99.90
14099;DHT22;7126;48.458;7.930;2023-06-22T05:41:45;22.30;99.90
14099;DHT22;7126;48.458;7.930;2023-06-22T05:44:11;22.40;99.90
14099;DHT22;7126;48.458;7.930;2023-06-22T05:46:40;22.40;99.90
14099;DHT22;7126;48.458;7.930;2023-06-22T05:49:10;22.50;99.90
14099;DHT22;7126;48.458;7.930;2023-06-22T05:51:35;22.50;99.90
14099;DHT22;7126;48.458;7.930;2023-06-22T05:54:01;22.60;99.90
14099;DHT22;7126;48.458;7.930;2023-06-22T05:56:27;22.70;99.90
14099;DHT22;7126;48.458;7.930;2023-06-22T05:58:52;22.70;99.90
14099;DHT22;7126;48.458;7.930;2023-06-22T06:01:18;22.70;99.90
14099;DHT22;7126;48.458;7.930;2023-06-22T06:03:43;22.70;99.90
14099;DHT22;7126;48.458;7.930;2023-06-22T06:06:09;22.80;99.90
14099;DHT22;7126;48.458;7.930;2023-06-22T06:08:37;22.90;99.90
14099;DHT22;7126;48.458;7.930;2023-06-22T06:11:02;22.90;99.90
14099;DHT22;7126;48.458;7.930;2023-06-22T06:13:28;23.00;99.90
14099;DHT22;7126;48.458;7.930;2023-06-22T06:15:53;23.00;99.90
14099;DHT22;7126;48.458;7.930;2023-06-22T06:18:20;23.10;99.90
14099;DHT22;7126;48.458;7.930;2023-06-22T06:20:46;23.20;99.90
14099;DHT22;7126;48.458;7.930;2023-06-22T06:23:12;23.20;99.90
14099;DHT22;7126;48.458;7.930;2023-06-22T06:25:37;23.30;99.90
14099;DHT22;7126;48.458;7.930;2023-06-22T06:28:03;23.40;99.90
14099;DHT22;7126;48.458;7.930;2023-06-22T06:30:29;23.40;99.90
14099;DHT22;7126;48.458;7.930;2023-06-22T06:32:54;23.40;99.90
14099;DHT22;7126;48.458;7.930;2023-06-22T06:35:21;23.40;99.90
14099;DHT22;7126;48.458;7.930;2023-06-22T06:37:48;23.50;99.90
14099;DHT22;7126;48.458;7.930;2023-06-22T06:40:14;23.50;99.90
14099;DHT22;7126;48.458;7.930;2023-06-22T06:42:45;23.60;99.90
14099;DHT22;7126;48.458;7.930;2023-06-22T06:45:20;23.70;99.90
14099;DHT22;7126;48.458;7.930;2023-06-22T06:47:49;23.80;99.90
14099;DHT22;7126;48.458;7.930;2023-06-22T06:50:15;23.90;99.90
14099;DHT22;7126;48.458;7.930;2023-06-22T06:52:40;24.00;99.90
14099;DHT22;7126;48.458;7.930;2023-06-22T06:55:07;24.00;99.90
14099;DHT22;7126;48.458;7.930;2023-06-22T06:57:36;24.10;99.90
14099;DHT22;7126;48.458;7.930;2023-06-22T07:00:03;24.10;99.90
14099;DHT22;7126;48.458;7.930;2023-06-22T07:02:34;24.10;99.90
14099;DHT22;7126;48.458;7.930;2023-06-22T07:05:00;24.20;99.90
14099;DHT22;7126;48.458;7.930;2023-06-22T07:07:25;24.40;99.90
14099;DHT22;7126;48.458;7.930;2023-06-22T07:09:51;24.40;99.90
14099;DHT22;7126;48.458;7.930;2023-06-22T07:12:17;24.40;99.90
14099;DHT22;7126;48.458;7.930;2023-06-22T07:14:42;24.40;99.90
14099;DHT22;7126;48.458;7.930;2023-06-22T07:17:08;24.50;99.90
14099;DHT22;7126;48.458;7.930;2023-06-22T07:19:33;24.50;99.90
14099;DHT22;7126;48.458;7.930;2023-06-22T07:21:59;24.60;99.90
14099;DHT22;7126;48.458;7.930;2023-06-22T07:24:25;24.60;99.90
14099;DHT22;7126;48.458;7.930;2023-06-22T07:26:50;24.60;99.90
14099;DHT22;7126;48.458;7.930;2023-06-22T07:29:20;24.60;99.90
14099;DHT22;7126;48.458;7.930;2023-06-22T07:31:47;24.60;99.90
14099;DHT22;7126;48.458;7.930;2023-06-22T07:34:13;24.60;99.90
14099;DHT22;7126;48.458;7.930;2023-06-22T07:36:38;24.50;99.90
14099;DHT22;7126;48.458;7.930;2023-06-22T07:39:04;24.40;99.90
14099;DHT22;7126;48.458;7.930;2023-06-22T07:41:31;24.30;99.90
14099;DHT22;7126;48.458;7.930;2023-06-22T07:43:56;24.30;99.90
14099;DHT22;7126;48.458;7.930;2023-06-22T07:46:22;24.30;99.90
14099;DHT22;7126;48.458;7.930;2023-06-22T07:48:48;24.30;99.90
14099;DHT22;7126;48.458;7.930;2023-06-22T07:51:14;24.30;99.90
14099;DHT22;7126;48.458;7.930;2023-06-22T07:53:43;24.40;99.90
14099;DHT22;7126;48.458;7.930;2023-06-22T07:56:12;24.50;99.90
14099;DHT22;7126;48.458;7.930;2023-06-22T07:58:38;24.60;99.90
14099;DHT22;7126;48.458;7.930;2023-06-22T08:01:03;24.80;99.90
14099;DHT22;7126;48.458;7.930;2023-06-22T08:03:29;24.90;99.90
14099;DHT22;7126;48.458;7.930;2023-06-22T08:05:55;24.90;99.90
14099;DHT22;7126;48.458;7.930;2023-06-22T08:08:21;25.00;99.90
14099;DHT22;7126;48.458;7.930;2023-06-22T08:10:46;25.00;99.90
14099;DHT22;7126;48.458;7.930;2023-06-22T08:13:12;25.10;99.90
14099;DHT22;7126;48.458;7.930;2023-06-22T08:15:38;25.20;99.90
14099;DHT22;7126;48.458;7.930;2023-06-22T08:18:03;25.30;99.90
14099;DHT22;7126;48.458;7.930;2023-06-22T08:20:29;25.40;99.90
14099;DHT22;7126;48.458;7.930;2023-06-22T08:22:55;25.50;99.90
14099;DHT22;7126;48.458;7.930;2023-06-22T08:25:21;25.60;99.90
14099;DHT22;7126;48.458;7.930;2023-06-22T08:27:47;25.70;99.90
14099;DHT22;7126;48.458;7.930;2023-06-22T08:30:14;25.80;99.90
14099;DHT22;7126;48.458;7.930;2023-06-22T08:32:40;25.80;99.90
14099;DHT22;7126;48.458;7.930;2023-06-22T08:35:06;25.80;99.90
14099;DHT22;7126;48.458;7.930;2023-06-22T08:37:35;25.80;99.90
14099;DHT22;7126;48.458;7.930;2023-06-22T08:40:03;26.00;99.90
14099;DHT22;7126;48.458;7.930;2023-06-22T08:42:30;26.10;99.90
14099;DHT22;7126;48.458;7.930;2023-06-22T08:44:56;26.10;99.90
14099;DHT22;7126;48.458;7.930;2023-06-22T08:47:22;26.10;99.90
14099;DHT22;7126;48.458;7.930;2023-06-22T08:49:48;26.20;99.90
14099;DHT22;7126;48.458;7.930;2023-06-22T08:52:14;26.20;99.90
14099;DHT22;7126;48.458;7.930;2023-06-22T08:54:39;26.10;99.90
14099;DHT22;7126;48.458;7.930;2023-06-22T08:57:05;26.20;99.90
14099;DHT22;7126;48.458;7.930;2023-06-22T08:59:31;26.20;99.90
14099;DHT22;7126;48.458;7.930;2023-06-22T09:01:57;26.20;99.90
14099;DHT22;7126;48.458;7.930;2023-06-22T09:04:22;26.20;99.90
14099;DHT22;7126;48.458;7.930;2023-06-22T09:06:48;26.20;99.90
14099;DHT22;7126;48.458;7.930;2023-06-22T09:09:15;26.30;99.90
14099;DHT22;7126;48.458;7.930;2023-06-22T09:11:41;26.30;99.90
14099;DHT22;7126;48.458;7.930;2023-06-22T09:14:07;26.40;99.90
14099;DHT22;7126;48.458;7.930;2023-06-22T09:16:33;26.30;99.90
14099;DHT22;7126;48.458;7.930;2023-06-22T09:18:59;26.30;99.90
14099;DHT22;7126;48.458;7.930;2023-06-22T09:21:25;26.30;99.90
14099;DHT22;7126;48.458;7.930;2023-06-22T09:23:50;26.40;99.90
14099;DHT22;7126;48.458;7.930;2023-06-22T09:26:20;26.40;99.90
14099;DHT22;7126;48.458;7.930;2023-06-22T09:28:45;26.40;99.90
14099;DHT22;7126;48.458;7.930;2023-06-22T09:31:11;26.40;99.90
14099;DHT22;7126;48.458;7.930;2023-06-22T09:33:37;26.60;99.90
14099;DHT22;7126;48.458;7.930;2023-06-22T09:36:06;26.60;99.90
14099;DHT22;7126;48.458;7.930;2023-06-22T09:38:36;26.60;99.90
14099;DHT22;7126;48.458;7.930;2023-06-22T09:41:02;26.70;99.90
14099;DHT22;7126;48.458;7.930;2023-06-22T09:43:29;26.80;99.90
14099;DHT22;7126;48.458;7.930;2023-06-22T09:45:55;26.80;99.90
14099;DHT22;7126;48.458;7.930;2023-06-22T09:48:20;26.80;99.90
14099;DHT22;7126;48.458;7.930;2023-06-22T09:50:46;26.90;99.90
14099;DHT22;7126;48.458;7.930;2023-06-22T09:53:11;26.90;99.90
14099;DHT22;7126;48.458;7.930;2023-06-22T09:55:37;27.10;99.90
14099;DHT22;7126;48.458;7.930;2023-06-22T09:58:02;27.20;99.90
14099;DHT22;7126;48.458;7.930;2023-06-22T10:00:28;27.30;99.90
14099;DHT22;7126;48.458;7.930;2023-06-22T10:02:54;27.50;99.90
14099;DHT22;7126;48.458;7.930;2023-06-22T10:05:21;27.60;99.90
14099;DHT22;7126;48.458;7.930;2023-06-22T10:07:47;27.70;99.90
14099;DHT22;7126;48.458;7.930;2023-06-22T10:10:13;27.70;99.90
14099;DHT22;7126;48.458;7.930;2023-06-22T10:12:45;27.60;99.90
14099;DHT22;7126;48.458;7.930;2023-06-22T10:15:11;27.70;99.90
14099;DHT22;7126;48.458;7.930;2023-06-22T10:17:37;27.70;99.90
14099;DHT22;7126;48.458;7.930;2023-06-22T10:20:02;27.70;99.90
14099;DHT22;7126;48.458;7.930;2023-06-22T10:22:40;27.70;99.90
14099;DHT22;7126;48.458;7.930;2023-06-22T10:25:07;27.80;99.90
14099;DHT22;7126;48.458;7.930;2023-06-22T10:27:33;27.80;99.90
14099;DHT22;7126;48.458;7.930;2023-06-22T10:29:58;27.80;99.90
14099;DHT22;7126;48.458;7.930;2023-06-22T10:32:24;27.90;99.90
14099;DHT22;7126;48.458;7.930;2023-06-22T10:34:49;28.10;99.90
14099;DHT22;7126;48.458;7.930;2023-06-22T10:37:15;28.10;99.90
14099;DHT22;7126;48.458;7.930;2023-06-22T10:39:40;28.30;99.90
14099;DHT22;7126;48.458;7.930;2023-06-22T10:42:06;28.40;99.90
14099;DHT22;7126;48.458;7.930;2023-06-22T10:44:32;28.50;99.90
14099;DHT22;7126;48.458;7.930;2023-06-22T10:46:57;28.50;99.90
14099;DHT22;7126;48.458;7.930;2023-06-22T10:49:23;28.50;99.90
14099;DHT22;7126;48.458;7.930;2023-06-22T10:51:49;28.50;99.90
14099;DHT22;7126;48.458;7.930;2023-06-22T10:54:14;28.50;99.90
14099;DHT22;7126;48.458;7.930;2023-06-22T10:56:42;28.60;99.90
14099;DHT22;7126;48.458;7.930;2023-06-22T10:59:08;28.70;99.90
14099;DHT22;7126;48.458;7.930;2023-06-22T11:01:33;28.80;99.90
14099;DHT22;7126;48.458;7.930;2023-06-22T11:03:59;28.80;99.90
14099;DHT22;7126;48.458;7.930;2023-06-22T11:06:24;28.90;99.90
14099;DHT22;7126;48.458;7.930;2023-06-22T11:08:50;29.00;99.90
14099;DHT22;7126;48.458;7.930;2023-06-22T11:11:15;28.80;99.90
14099;DHT22;7126;48.458;7.930;2023-06-22T11:13:43;28.80;99.90
14099;DHT22;7126;48.458;7.930;2023-06-22T11:16:09;28.70;99.90
14099;DHT22;7126;48.458;7.930;2023-06-22T11:18:35;28.70;99.90
14099;DHT22;7126;48.458;7.930;2023-06-22T11:21:01;28.70;99.90
14099;DHT22;7126;48.458;7.930;2023-06-22T11:23:26;28.70;99.90
14099;DHT22;7126;48.458;7.930;2023-06-22T11:25:53;28.60;99.90
14099;DHT22;7126;48.458;7.930;2023-06-22T11:28:19;28.60;99.90
14099;DHT22;7126;48.458;7.930;2023-06-22T11:30:44;28.60;99.90
14099;DHT22;7126;48.458;7.930;2023-06-22T11:33:10;28.50;99.90
14099;DHT22;7126;48.458;7.930;2023-06-22T11:35:35;28.40;99.90
14099;DHT22;7126;48.458;7.930;2023-06-22T11:38:01;28.40;99.90
14099;DHT22;7126;48.458;7.930;2023-06-22T11:40:28;28.40;99.90
14099;DHT22;7126;48.458;7.930;2023-06-22T11:42:54;28.20;99.90
14099;DHT22;7126;48.458;7.930;2023-06-22T11:45:19;28.20;99.90
14099;DHT22;7126;48.458;7.930;2023-06-22T11:47:46;28.20;99.90
14099;DHT22;7126;48.458;7.930;2023-06-22T11:50:11;28.10;99.90
14099;DHT22;7126;48.458;7.930;2023-06-22T11:52:37;28.10;99.90
14099;DHT22;7126;48.458;7.930;2023-06-22T11:55:03;28.00;99.90
14099;DHT22;7126;48.458;7.930;2023-06-22T11:57:32;28.00;99.90
14099;DHT22;7126;48.458;7.930;2023-06-22T11:59:58;27.90;99.90
14099;DHT22;7126;48.458;7.930;2023-06-22T12:02:23;27.90;99.90
14099;DHT22;7126;48.458;7.930;2023-06-22T12:04:49;27.90;99.90
14099;DHT22;7126;48.458;7.930;2023-06-22T12:07:18;27.90;99.90
14099;DHT22;7126;48.458;7.930;2023-06-22T12:09:43;27.90;99.90
14099;DHT22;7126;48.458;7.930;2023-06-22T12:12:09;28.00;99.90
14099;DHT22;7126;48.458;7.930;2023-06-22T12:14:35;28.10;99.90
14099;DHT22;7126;48.458;7.930;2023-06-22T12:17:00;28.10;99.90
14099;DHT22;7126;48.458;7.930;2023-06-22T12:19:26;28.20;99.90
14099;DHT22;7126;48.458;7.930;2023-06-22T12:21:52;28.30;99.90
14099;DHT22;7126;48.458;7.930;2023-06-22T12:24:17;28.60;99.90
14099;DHT22;7126;48.458;7.930;2023-06-22T12:26:43;28.70;99.90
14099;DHT22;7126;48.458;7.930;2023-06-22T12:29:08;28.80;99.90
14099;DHT22;7126;48.458;7.930;2023-06-22T12:31:35;28.90;99.90
14099;DHT22;7126;48.458;7.930;2023-06-22T12:34:02;28.80;99.90
14099;DHT22;7126;48.458;7.930;2023-06-22T12:36:27;28.80;99.90
14099;DHT22;7126;48.458;7.930;2023-06-22T12:38:53;28.80;99.90
14099;DHT22;7126;48.458;7.930;2023-06-22T12:41:19;28.90;99.90
14099;DHT22;7126;48.458;7.930;2023-06-22T12:43:45;28.90;99.90
14099;DHT22;7126;48.458;7.930;2023-06-22T12:46:10;28.90;99.90
14099;DHT22;7126;48.458;7.930;2023-06-22T12:48:36;29.00;99.90
14099;DHT22;7126;48.458;7.930;2023-06-22T12:51:07;29.30;99.90
14099;DHT22;7126;48.458;7.930;2023-06-22T12:53:33;29.40;99.90
14099;DHT22;7126;48.458;7.930;2023-06-22T12:55:58;29.30;99.90
14099;DHT22;7126;48.458;7.930;2023-06-22T12:58:24;29.30;99.90
14099;DHT22;7126;48.458;7.930;2023-06-22T13:00:50;29.30;99.90
14099;DHT22;7126;48.458;7.930;2023-06-22T13:03:15;29.30;99.90
14099;DHT22;7126;48.458;7.930;2023-06-22T13:05:41;29.20;99.90
14099;DHT22;7126;48.458;7.930;2023-06-22T13:08:06;29.20;99.90
14099;DHT22;7126;48.458;7.930;2023-06-22T13:10:33;29.20;99.90
14099;DHT22;7126;48.458;7.930;2023-06-22T13:12:59;29.20;99.90
14099;DHT22;7126;48.458;7.930;2023-06-22T13:15:27;29.30;99.90
14099;DHT22;7126;48.458;7.930;2023-06-22T13:17:53;29.40;99.90
14099;DHT22;7126;48.458;7.930;2023-06-22T13:20:19;29.60;99.90
14099;DHT22;7126;48.458;7.930;2023-06-22T13:22:45;29.70;99.90
14099;DHT22;7126;48.458;7.930;2023-06-22T13:25:10;29.80;99.90
14099;DHT22;7126;48.458;7.930;2023-06-22T13:27:44;29.80;99.90
14099;DHT22;7126;48.458;7.930;2023-06-22T13:30:10;29.80;99.90
14099;DHT22;7126;48.458;7.930;2023-06-22T13:32:36;29.80;99.90
14099;DHT22;7126;48.458;7.930;2023-06-22T13:35:01;29.70;99.90
14099;DHT22;7126;48.458;7.930;2023-06-22T13:37:27;29.70;99.90
14099;DHT22;7126;48.458;7.930;2023-06-22T13:39:52;29.70;99.90
14099;DHT22;7126;48.458;7.930;2023-06-22T13:42:18;29.90;99.90
14099;DHT22;7126;48.458;7.930;2023-06-22T13:44:44;30.00;99.90
14099;DHT22;7126;48.458;7.930;2023-06-22T13:47:09;30.20;99.90
14099;DHT22;7126;48.458;7.930;2023-06-22T13:49:35;30.30;99.90
14099;DHT22;7126;48.458;7.930;2023-06-22T13:52:00;30.30;99.90
14099;DHT22;7126;48.458;7.930;2023-06-22T13:54:26;30.50;99.90
14099;DHT22;7126;48.458;7.930;2023-06-22T13:56:52;30.80;99.90
14099;DHT22;7126;48.458;7.930;2023-06-22T13:59:18;31.00;99.90
14099;DHT22;7126;48.458;7.930;2023-06-22T14:01:45;31.00;99.90
14099;DHT22;7126;48.458;7.930;2023-06-22T14:04:10;31.00;99.90
14099;DHT22;7126;48.458;7.930;2023-06-22T14:06:36;30.90;99.90
14099;DHT22;7126;48.458;7.930;2023-06-22T14:09:01;30.90;99.90
14099;DHT22;7126;48.458;7.930;2023-06-22T14:11:28;31.10;99.90
14099;DHT22;7126;48.458;7.930;2023-06-22T14:13:53;31.30;99.90
14099;DHT22;7126;48.458;7.930;2023-06-22T14:16:19;31.50;99.90
14099;DHT22;7126;48.458;7.930;2023-06-22T14:18:45;31.50;99.90
14099;DHT22;7126;48.458;7.930;2023-06-22T14:21:10;31.40;99.90
14099;DHT22;7126;48.458;7.930;2023-06-22T14:23:36;31.60;99.90
14099;DHT22;7126;48.458;7.930;2023-06-22T14:26:03;31.60;99.90
14099;DHT22;7126;48.458;7.930;2023-06-22T14:28:28;31.50;99.90
14099;DHT22;7126;48.458;7.930;2023-06-22T14:30:54;31.60;99.90
14099;DHT22;7126;48.458;7.930;2023-06-22T14:33:19;31.70;99.90
14099;DHT22;7126;48.458;7.930;2023-06-22T14:35:45;31.70;99.90
14099;DHT22;7126;48.458;7.930;2023-06-22T14:38:11;31.70;99.90
14099;DHT22;7126;48.458;7.930;2023-06-22T14:40:36;31.80;99.90
14099;DHT22;7126;48.458;7.930;2023-06-22T14:43:02;31.90;99.90
14099;DHT22;7126;48.458;7.930;2023-06-22T14:45:27;32.00;99.90
14099;DHT22;7126;48.458;7.930;2023-06-22T14:47:53;32.10;99.90
14099;DHT22;7126;48.458;7.930;2023-06-22T14:50:18;31.90;99.90
14099;DHT22;7126;48.458;7.930;2023-06-22T14:52:44;31.80;99.90
14099;DHT22;7126;48.458;7.930;2023-06-22T14:55:09;31.60;99.90
14099;DHT22;7126;48.458;7.930;2023-06-22T14:57:35;31.60;99.90
14099;DHT22;7126;48.458;7.930;2023-06-22T15:00:00;31.70;99.90
14099;DHT22;7126;48.458;7.930;2023-06-22T15:02:27;31.80;99.90
14099;DHT22;7126;48.458;7.930;2023-06-22T15:04:53;31.90;99.90
14099;DHT22;7126;48.458;7.930;2023-06-22T15:07:20;32.00;99.90
14099;DHT22;7126;48.458;7.930;2023-06-22T15:09:46;31.90;99.90
14099;DHT22;7126;48.458;7.930;2023-06-22T15:12:11;31.90;99.90
14099;DHT22;7126;48.458;7.930;2023-06-22T15:14:41;31.90;99.90
14099;DHT22;7126;48.458;7.930;2023-06-22T15:17:07;31.90;99.90
14099;DHT22;7126;48.458;7.930;2023-06-22T15:19:36;31.90;99.90
14099;DHT22;7126;48.458;7.930;2023-06-22T15:22:04;31.90;99.90
14099;DHT22;7126;48.458;7.930;2023-06-22T15:24:30;31.90;99.90
14099;DHT22;7126;48.458;7.930;2023-06-22T15:26:56;31.90;99.90
14099;DHT22;7126;48.458;7.930;2023-06-22T15:29:21;31.90;99.90
14099;DHT22;7126;48.458;7.930;2023-06-22T15:31:47;32.00;99.90
14099;DHT22;7126;48.458;7.930;2023-06-22T15:34:15;32.10;99.90
14099;DHT22;7126;48.458;7.930;2023-06-22T15:36:41;32.10;99.90
14099;DHT22;7126;48.458;7.930;2023-06-22T15:39:06;32.20;99.90
14099;DHT22;7126;48.458;7.930;2023-06-22T15:41:32;32.20;99.90
14099;DHT22;7126;48.458;7.930;2023-06-22T15:43:58;32.10;99.90
14099;DHT22;7126;48.458;7.930;2023-06-22T15:46:23;32.00;99.90